Albion, Indiana
Current Conditions -  °F | °C
As of 1:55 AM on Friday 28 Nov 2014 (Local Time) from KGWB Reporting Station
Overcast Overcast  
Wind Chill: -10°   Ceiling: 2000
Heat Index: -5°   Visibility: 10mi
Dew Point: -8°   Wind: 7mph
Humidity: 80%   Direction: 260°W
Pressure: 30.35"   Gusts: NA
Location:  41.4°N, 85.42°W
Report Text: KGWB 280655Z AUTO 26006KT 10SM BKN020 OVC045 M05/M08 A3035 RMK AO2
Loading
Personal Weather Stations






























Interactive Weather Map New forecast layout! Learn more

10-Day Weather Forecast

Advertisements
Track Severe Weather on mobile